Time;durP1;ratioP1;P1;durP2;ratioP2;P2;SDS_P1;SDS_P2;PMS_P1;PMS_P2;Temp;Humidity;BMP_temperature;BMP_pressure;BME280_temperature;BME280_humidity;BME280_pressure;Samples;Min_cycle;Max_cycle;Signal;HPM_P1;HPM_P2
2023/09/10 13:51:26;;;;;;;8.82;5.90;;;24.70;61.10;;;;;;5093247;28;20388;-60
2023/09/10 13:53:52;;;;;;;8.57;5.95;;;24.80;59.60;;;;;;5065481;27;20032;-61
2023/09/10 13:56:18;;;;;;;11.20;5.85;;;24.80;58.20;;;;;;5065519;27;20577;-61
2023/09/10 13:58:44;;;;;;;11.40;5.72;;;25.00;57.10;;;;;;5065201;28;20403;-61
2023/09/10 14:01:09;;;;;;;12.50;6.70;;;25.10;55.60;;;;;;5064998;28;20040;-61
2023/09/10 14:03:36;;;;;;;12.73;6.32;;;25.10;54.50;;;;;;5065295;28;20074;-59
2023/09/10 14:06:03;;;;;;;11.50;7.30;;;25.10;54.20;;;;;;5065324;28;20027;-61
2023/09/10 14:08:29;;;;;;;10.20;6.45;;;25.20;53.30;;;;;;5065478;27;20025;-61
2023/09/10 14:10:54;;;;;;;9.75;6.32;;;25.30;53.20;;;;;;5065017;27;20124;-61
2023/09/10 14:13:20;;;;;;;10.85;6.38;;;25.20;52.40;;;;;;5065314;27;20108;-61
2023/09/10 14:15:46;;;;;;;10.93;6.47;;;25.30;52.40;;;;;;5065294;27;20044;-61
2023/09/10 14:18:12;;;;;;;11.57;6.50;;;25.30;52.40;;;;;;5065001;28;20085;-61
2023/09/10 14:20:38;;;;;;;13.45;7.35;;;25.30;52.40;;;;;;5064654;28;20117;-61
2023/09/10 14:23:04;;;;;;;13.93;7.57;;;25.30;52.30;;;;;;5065014;28;20031;-60
2023/09/10 14:25:30;;;;;;;13.95;7.50;;;25.30;52.20;;;;;;5064885;27;20036;-61
2023/09/10 14:27:56;;;;;;;15.90;7.35;;;25.30;51.80;;;;;;5064732;28;20024;-61
2023/09/10 14:30:22;;;;;;;10.25;6.95;;;25.30;51.90;;;;;;5064588;27;20486;-61
2023/09/10 14:32:48;;;;;;;10.70;6.78;;;25.30;51.60;;;;;;5064852;27;20429;-61
2023/09/10 14:35:14;;;;;;;10.73;6.60;;;25.30;51.30;;;;;;5064936;27;20029;-61
2023/09/10 14:37:39;;;;;;;8.57;6.55;;;25.30;51.20;;;;;;5064814;28;20027;-61
2023/09/10 14:40:06;;;;;;;9.27;6.80;;;25.30;50.90;;;;;;5064302;28;20048;-61
2023/09/10 14:42:33;;;;;;;11.57;7.13;;;25.30;50.90;;;;;;5064795;28;20459;-61
2023/09/10 14:44:59;;;;;;;13.90;7.28;;;25.40;50.90;;;;;;5064678;28;20029;-61
2023/09/10 14:47:25;;;;;;;11.65;7.53;;;25.30;50.60;;;;;;5065075;28;20382;-61
2023/09/10 14:49:51;;;;;;;12.98;7.15;;;25.30;50.50;;;;;;5133737;27;20028;-60
2023/09/10 14:52:16;;;;;;;11.75;7.45;;;25.30;51.00;;;;;;5051694;28;20373;-61
2023/09/10 14:54:42;;;;;;;12.05;7.25;;;25.40;51.10;;;;;;5051014;28;20025;-61
2023/09/10 14:57:08;;;;;;;15.45;7.05;;;25.40;51.20;;;;;;5051150;27;20083;-60
2023/09/10 14:59:34;;;;;;;13.68;6.68;;;25.40;51.00;;;;;;5050983;27;20033;-61
2023/09/10 15:02:00;;;;;;;14.32;7.10;;;25.30;51.00;;;;;;5041260;28;20029;-61
2023/09/10 15:04:25;;;;;;;15.60;7.10;;;25.30;51.80;;;;;;5050445;28;20021;-59
2023/09/10 15:06:52;;;;;;;17.77;7.68;;;25.30;51.50;;;;;;5050597;28;20029;-61
2023/09/10 15:09:18;;;;;;;16.58;7.97;;;25.30;51.50;;;;;;5043233;27;20106;-60
2023/09/10 15:11:44;;;;;;;14.55;6.68;;;25.40;51.20;;;;;;5035837;27;20067;-60
2023/09/10 15:14:10;;;;;;;14.05;6.80;;;25.40;50.50;;;;;;5039218;27;20460;-60
2023/09/10 15:16:35;;;;;;;21.85;7.20;;;25.50;50.90;;;;;;5039624;27;20499;-60
2023/09/10 15:19:01;;;;;;;16.23;8.13;;;25.50;50.50;;;;;;5043423;27;20025;-60
2023/09/10 15:21:27;;;;;;;15.77;8.05;;;25.50;51.40;;;;;;5045823;27;20081;-59
2023/09/10 15:23:53;;;;;;;12.73;7.63;;;25.50;51.20;;;;;;5047321;27;20030;-59
2023/09/10 15:26:19;;;;;;;11.50;7.43;;;25.50;50.90;;;;;;5047495;27;20029;-59
2023/09/10 15:28:45;;;;;;;12.25;7.45;;;25.50;50.40;;;;;;5044401;27;20044;-60
2023/09/10 15:31:13;;;;;;;26.25;13.20;;;25.50;50.10;;;;;;5044768;27;20487;-58
2023/09/10 15:33:40;;;;;;;19.73;12.20;;;25.40;50.40;;;;;;5047459;27;20029;-58
2023/09/10 15:36:06;;;;;;;21.88;11.10;;;25.40;50.70;;;;;;5047209;27;20050;-58
2023/09/10 15:38:32;;;;;;;19.63;10.85;;;25.40;51.00;;;;;;5047279;27;20024;-57
2023/09/10 15:40:58;;;;;;;18.30;9.98;;;25.40;50.90;;;;;;5047341;27;20043;-58
2023/09/10 15:43:29;;;;;;;14.70;10.07;;;25.40;51.20;;;;;;5047163;27;20089;-58
2023/09/10 15:45:55;;;;;;;18.23;9.00;;;25.40;51.30;;;;;;5046495;27;20106;-60
2023/09/10 15:48:21;;;;;;;26.40;9.90;;;25.40;51.70;;;;;;5047242;27;20436;-55
2023/09/10 15:50:47;;;;;;;21.95;9.15;;;25.40;52.70;;;;;;5045429;27;20373;-57
2023/09/10 15:53:14;;;;;;;14.10;8.93;;;25.40;52.50;;;;;;5046400;27;20029;-58
2023/09/10 15:55:40;;;;;;;15.90;9.80;;;25.40;53.10;;;;;;5046078;27;20033;-55
2023/09/10 15:58:06;;;;;;;13.10;8.77;;;25.40;52.60;;;;;;5047422;27;20124;-56
2023/09/10 16:00:31;;;;;;;11.57;8.63;;;25.40;52.40;;;;;;5046433;27;20112;-54
2023/09/10 16:02:57;;;;;;;15.15;8.90;;;25.40;52.50;;;;;;5045993;27;20108;-54
2023/09/10 16:05:23;;;;;;;19.58;9.68;;;25.40;52.90;;;;;;5046973;27;20053;-56
2023/09/10 16:07:49;;;;;;;14.70;8.75;;;25.40;52.80;;;;;;5046759;27;20094;-54
2023/09/10 16:10:14;;;;;;;17.23;7.60;;;25.30;53.10;;;;;;5050427;27;20025;-57
2023/09/10 16:12:40;;;;;;;16.10;8.40;;;25.30;53.10;;;;;;5047091;27;20057;-54
2023/09/10 16:15:07;;;;;;;17.02;9.30;;;25.30;53.80;;;;;;5046291;27;20251;-52
2023/09/10 16:17:32;;;;;;;22.60;9.73;;;25.30;53.10;;;;;;5047070;27;20029;-54
2023/09/10 16:19:58;;;;;;;21.60;15.32;;;25.30;53.70;;;;;;5046891;27;20614;-53
2023/09/10 16:22:29;;;;;;;23.27;15.50;;;25.20;53.30;;;;;;5046467;27;20025;-56
2023/09/10 16:24:55;;;;;;;20.13;14.60;;;25.30;53.60;;;;;;5047115;27;20100;-58
2023/09/10 16:27:21;;;;;;;20.52;16.05;;;25.30;53.60;;;;;;5046760;27;20551;-57
2023/09/10 16:29:46;;;;;;;35.78;17.00;;;25.30;53.30;;;;;;5046698;27;20112;-58
2023/09/10 16:32:12;;;;;;;27.08;15.68;;;25.30;54.80;;;;;;5047243;27;20051;-58
2023/09/10 16:34:38;;;;;;;22.35;15.60;;;25.30;54.80;;;;;;5047299;27;20469;-57
2023/09/10 16:37:04;;;;;;;22.42;15.80;;;25.30;54.60;;;;;;5047149;27;20037;-56
2023/09/10 16:39:30;;;;;;;22.08;17.30;;;25.30;54.00;;;;;;5046852;27;20029;-56
2023/09/10 16:41:56;;;;;;;32.53;21.33;;;25.30;54.80;;;;;;5046510;27;20021;-56
2023/09/10 16:44:27;;;;;;;33.25;21.70;;;25.40;55.20;;;;;;5046864;27;20021;-56
2023/09/10 16:46:54;;;;;;;26.27;17.25;;;25.40;56.40;;;;;;5040182;27;20036;-53
2023/09/10 16:49:20;;;;;;;24.58;15.23;;;25.40;55.30;;;;;;5045300;27;20029;-51
2023/09/10 16:51:45;;;;;;;23.27;15.13;;;25.30;56.30;;;;;;5042010;27;20067;-54
2023/09/10 16:54:11;;;;;;;19.83;12.55;;;25.20;56.10;;;;;;5044734;27;20063;-56
2023/09/10 16:56:37;;;;;;;20.42;14.95;;;25.20;55.50;;;;;;5045593;27;20121;-57
2023/09/10 16:59:03;;;;;;;17.95;13.13;;;25.20;54.90;;;;;;5045956;27;20106;-57
2023/09/10 17:01:29;;;;;;;18.98;13.25;;;25.20;54.90;;;;;;5045863;27;20029;-55
2023/09/10 17:03:55;;;;;;;19.45;11.95;;;25.20;55.10;;;;;;5046367;27;20043;-57
2023/09/10 17:06:21;;;;;;;17.80;11.88;;;25.20;54.80;;;;;;5045463;27;20029;-54
2023/09/10 17:08:47;;;;;;;18.00;11.52;;;25.20;55.50;;;;;;5045545;27;20524;-54
2023/09/10 17:11:14;;;;;;;14.88;10.82;;;25.20;55.00;;;;;;5045372;27;20017;-57
2023/09/10 17:13:45;;;;;;;18.27;10.48;;;25.20;55.10;;;;;;5045424;27;20365;-54
2023/09/10 17:16:12;;;;;;;15.57;10.00;;;25.20;55.20;;;;;;5045736;27;20021;-55
2023/09/10 17:18:38;;;;;;;17.55;10.25;;;25.20;55.40;;;;;;5046260;27;20395;-54
2023/09/10 17:21:04;;;;;;;13.73;9.18;;;25.20;55.60;;;;;;5045887;27;20154;-54
2023/09/10 17:23:30;;;;;;;13.30;9.50;;;25.20;55.60;;;;;;5114673;27;20487;-56
2023/09/10 17:26:01;;;;;;;13.27;9.02;;;25.20;55.70;;;;;;5046159;27;20032;-54
2023/09/10 17:28:28;;;;;;;13.55;9.55;;;25.20;55.80;;;;;;5046110;27;20036;-54
2023/09/10 17:30:54;;;;;;;14.15;10.20;;;25.20;55.90;;;;;;5045777;27;20037;-56
2023/09/10 17:33:20;;;;;;;18.92;10.27;;;25.20;55.90;;;;;;5045993;27;20040;-57
2023/09/10 17:35:48;;;;;;;15.23;9.90;;;25.20;56.10;;;;;;5046011;27;20124;-60
2023/09/10 17:38:15;;;;;;;17.08;9.52;;;25.20;56.10;;;;;;5045916;27;20081;-55
2023/09/10 17:40:41;;;;;;;24.30;10.35;;;25.20;57.80;;;;;;5045658;27;20049;-52
2023/09/10 17:43:07;;;;;;;24.77;9.80;;;25.20;57.90;;;;;;5046045;27;20501;-54
2023/09/10 17:45:32;;;;;;;24.00;9.75;;;25.20;57.40;;;;;;5045461;27;20053;-51
2023/09/10 17:47:59;;;;;;;20.83;9.30;;;25.10;57.10;;;;;;5045860;27;20105;-52
2023/09/10 17:50:26;;;;;;;20.55;10.10;;;25.20;57.00;;;;;;5045334;27;20487;-55
2023/09/10 17:52:52;;;;;;;18.67;9.88;;;25.10;57.10;;;;;;5114786;28;20068;-55
2023/09/10 17:55:18;;;;;;;21.13;9.05;;;25.10;57.20;;;;;;5045711;27;20037;-53
2023/09/10 17:57:44;;;;;;;15.88;8.43;;;25.10;57.00;;;;;;5045551;27;20113;-54
2023/09/10 18:00:10;;;;;;;23.83;10.30;;;25.10;57.10;;;;;;5045272;27;20090;-57
2023/09/10 18:02:36;;;;;;;16.10;9.88;;;25.10;57.30;;;;;;5045681;27;20029;-57
2023/09/10 18:05:05;;;;;;;15.40;8.60;;;25.10;57.20;;;;;;5045858;27;20021;-55
2023/09/10 18:07:32;;;;;;;16.33;8.35;;;25.10;57.30;;;;;;5045459;27;20116;-55
2023/09/10 18:09:58;;;;;;;15.23;8.13;;;25.10;57.30;;;;;;5045388;27;20024;-52
2023/09/10 18:12:25;;;;;;;14.13;8.73;;;25.10;57.30;;;;;;5036845;27;20553;-56
2023/09/10 18:14:50;;;;;;;14.27;9.35;;;25.00;57.40;;;;;;5045996;27;20143;-54
2023/09/10 18:17:18;;;;;;;17.02;9.07;;;25.10;57.50;;;;;;5045941;27;20127;-56
2023/09/10 18:19:44;;;;;;;14.85;8.77;;;25.10;57.60;;;;;;5045416;28;20109;-57
2023/09/10 18:22:10;;;;;;;14.18;9.25;;;25.10;57.60;;;;;;5045986;28;20116;-56
2023/09/10 18:24:36;;;;;;;16.90;8.50;;;25.10;57.70;;;;;;5045815;28;20025;-53
2023/09/10 18:27:02;;;;;;;15.50;9.23;;;25.10;58.40;;;;;;5048038;28;20025;-54
2023/09/10 18:29:28;;;;;;;14.30;9.13;;;25.00;57.80;;;;;;5049072;28;20060;-56
2023/09/10 18:31:55;;;;;;;17.83;9.70;;;25.00;57.80;;;;;;5049012;28;20108;-53
2023/09/10 18:34:21;;;;;;;16.02;8.45;;;25.00;57.90;;;;;;5049263;27;20448;-56
2023/09/10 18:36:47;;;;;;;14.35;9.45;;;25.00;57.90;;;;;;5049364;28;20025;-54
2023/09/10 18:39:13;;;;;;;15.80;9.18;;;25.00;57.90;;;;;;5049180;28;20035;-55
2023/09/10 18:41:39;;;;;;;16.13;9.27;;;25.00;58.00;;;;;;5048780;27;20468;-54
2023/09/10 18:44:05;;;;;;;16.10;9.45;;;25.00;58.00;;;;;;5049043;28;20514;-53
2023/09/10 18:46:31;;;;;;;19.58;9.63;;;25.10;58.00;;;;;;5048870;28;20099;-57
2023/09/10 18:48:58;;;;;;;21.23;11.30;;;25.10;59.10;;;;;;5048730;28;20029;-54
2023/09/10 18:51:24;;;;;;;17.08;9.20;;;25.00;58.60;;;;;;5048577;27;20029;-56
2023/09/10 18:53:50;;;;;;;21.55;11.45;;;25.00;58.30;;;;;;5117890;27;20028;-56
2023/09/10 18:56:16;;;;;;;22.17;11.68;;;25.10;58.90;;;;;;5050354;28;20029;-60
2023/09/10 18:58:42;;;;;;;32.25;12.77;;;25.10;60.00;;;;;;5050854;28;20036;-59
2023/09/10 19:01:08;;;;;;;25.30;11.05;;;25.10;59.20;;;;;;5050396;28;20476;-60
2023/09/10 19:03:33;;;;;;;22.08;11.75;;;25.10;59.00;;;;;;5050600;28;20028;-60
2023/09/10 19:06:00;;;;;;;19.13;11.35;;;25.00;59.00;;;;;;5050903;28;20025;-60
2023/09/10 19:08:27;;;;;;;22.55;12.57;;;25.00;59.00;;;;;;5119715;27;20082;-60
2023/09/10 19:10:54;;;;;;;24.08;13.13;;;25.00;59.00;;;;;;5050460;28;20094;-60
2023/09/10 19:13:21;;;;;;;20.92;12.45;;;25.00;59.10;;;;;;5050662;28;20048;-60
2023/09/10 19:15:47;;;;;;;18.35;11.77;;;25.00;59.10;;;;;;5051193;27;20456;-60
2023/09/10 19:18:13;;;;;;;22.73;12.40;;;25.00;59.20;;;;;;5050494;28;20431;-60
2023/09/10 19:20:39;;;;;;;19.48;12.30;;;25.00;59.20;;;;;;5050148;28;20086;-58
2023/09/10 19:23:10;;;;;;;20.38;12.60;;;25.00;59.20;;;;;;5050640;27;20032;-60
2023/09/10 19:25:37;;;;;;;20.10;12.23;;;25.00;59.20;;;;;;5050660;27;20476;-60
2023/09/10 19:28:04;;;;;;;20.08;12.80;;;25.00;59.30;;;;;;5050501;28;20025;-60
2023/09/10 19:30:30;;;;;;;24.05;13.48;;;24.90;59.20;;;;;;5042841;27;20034;-60
2023/09/10 19:32:56;;;;;;;28.77;13.18;;;24.90;59.30;;;;;;5029171;28;20113;-60
2023/09/10 19:35:22;;;;;;;26.70;13.43;;;24.90;60.60;;;;;;5029476;28;20108;-55
2023/09/10 19:37:53;;;;;;;21.88;12.95;;;24.90;59.60;;;;;;5029141;28;20029;-57
2023/09/10 19:40:21;;;;;;;25.00;13.32;;;24.90;59.60;;;;;;5028685;28;20021;-59
2023/09/10 19:42:48;;;;;;;20.85;12.88;;;24.90;59.60;;;;;;5029174;28;20450;-57
2023/09/10 19:45:16;;;;;;;22.40;13.70;;;25.00;59.50;;;;;;5030148;28;20053;-59
2023/09/10 19:47:43;;;;;;;22.02;13.57;;;24.90;59.60;;;;;;5030273;28;20077;-55
2023/09/10 19:50:10;;;;;;;23.63;13.90;;;24.90;59.70;;;;;;5029722;28;20034;-57
2023/09/10 19:52:37;;;;;;;23.23;13.65;;;24.90;59.60;;;;;;5030159;28;20365;-58
2023/09/10 19:55:04;;;;;;;19.80;13.40;;;24.90;59.60;;;;;;5030140;28;20032;-57
2023/09/10 19:57:29;;;;;;;23.98;14.18;;;24.90;59.70;;;;;;5030063;28;20354;-58
2023/09/10 19:59:55;;;;;;;23.67;14.18;;;24.90;59.70;;;;;;5029674;28;20129;-55
2023/09/10 20:02:21;;;;;;;22.15;13.80;;;24.90;59.60;;;;;;5030098;28;20061;-57
2023/09/10 20:04:47;;;;;;;18.80;13.43;;;24.90;60.10;;;;;;5095662;22;20040;-57
2023/09/10 20:07:13;;;;;;;19.85;13.48;;;24.90;59.70;;;;;;5093044;28;20376;-58
2023/09/10 20:09:40;;;;;;;23.60;14.32;;;24.90;59.90;;;;;;5093071;28;20070;-59
2023/09/10 20:12:07;;;;;;;20.00;14.30;;;24.90;59.80;;;;;;5075085;28;20039;-59
2023/09/10 20:14:33;;;;;;;22.08;13.50;;;24.90;59.90;;;;;;5092948;28;20024;-59
2023/09/10 20:16:59;;;;;;;22.60;14.13;;;24.90;59.90;;;;;;5092987;28;20036;-59
2023/09/10 20:19:25;;;;;;;24.48;15.18;;;24.80;59.90;;;;;;5092809;28;20032;-59
2023/09/10 20:21:53;;;;;;;20.85;14.95;;;24.80;59.90;;;;;;5092600;28;20517;-59
2023/09/10 20:24:20;;;;;;;21.40;15.05;;;24.90;60.00;;;;;;5092772;28;20028;-59
2023/09/10 20:26:46;;;;;;;21.13;15.27;;;24.90;60.00;;;;;;5092805;28;20020;-59
2023/09/10 20:29:12;;;;;;;25.85;15.43;;;24.80;59.90;;;;;;5074734;28;20081;-60
2023/09/10 20:31:38;;;;;;;21.98;15.80;;;24.80;60.00;;;;;;5092350;28;20066;-59
2023/09/10 20:34:04;;;;;;;26.05;15.57;;;24.80;60.00;;;;;;5092396;28;20036;-60
2023/09/10 20:36:30;;;;;;;27.55;16.85;;;24.80;60.20;;;;;;5092206;28;20024;-60
2023/09/10 20:38:56;;;;;;;22.70;16.75;;;24.80;60.30;;;;;;5092854;28;20066;-60
2023/09/10 20:41:22;;;;;;;24.90;16.33;;;24.80;60.20;;;;;;5092366;28;20375;-60
2023/09/10 20:43:48;;;;;;;22.42;16.15;;;24.80;60.30;;;;;;5092460;28;20016;-60
2023/09/10 20:46:15;;;;;;;23.10;16.67;;;24.80;60.30;;;;;;5074439;28;20031;-60
2023/09/10 20:48:41;;;;;;;26.95;16.98;;;24.80;60.40;;;;;;5092117;28;20020;-60
2023/09/10 20:51:08;;;;;;;25.35;16.80;;;24.80;60.40;;;;;;5092574;28;20115;-60
2023/09/10 20:53:35;;;;;;;24.40;18.20;;;24.80;60.50;;;;;;5092326;28;20028;-60
2023/09/10 20:56:01;;;;;;;26.25;18.67;;;24.80;60.50;;;;;;5092284;28;20028;-61
2023/09/10 20:58:27;;;;;;;26.42;17.13;;;24.80;60.50;;;;;;5092283;28;20040;-60
2023/09/10 21:00:54;;;;;;;27.38;17.95;;;24.80;60.60;;;;;;5091728;28;20046;-61
2023/09/10 21:03:21;;;;;;;24.77;17.00;;;24.80;60.60;;;;;;5091904;28;20086;-60
2023/09/10 21:05:47;;;;;;;25.85;18.17;;;24.80;60.80;;;;;;5092073;28;20063;-61
2023/09/10 21:08:14;;;;;;;29.85;18.63;;;24.80;60.80;;;;;;5074283;28;20063;-61
2023/09/10 21:10:40;;;;;;;23.90;17.25;;;24.80;60.80;;;;;;5091741;28;20020;-61
2023/09/10 21:13:06;;;;;;;26.38;18.23;;;24.80;60.90;;;;;;5091938;28;20483;-61
2023/09/10 21:15:31;;;;;;;38.35;18.58;;;24.80;60.90;;;;;;5091919;28;20031;-62
2023/09/10 21:17:57;;;;;;;28.95;18.45;;;24.80;60.90;;;;;;5091889;28;20079;-62
2023/09/10 21:20:23;;;;;;;30.30;17.70;;;24.80;60.90;;;;;;5091479;28;20447;-61
2023/09/10 21:22:49;;;;;;;28.38;19.38;;;24.80;61.00;;;;;;5091650;28;20024;-61
2023/09/10 21:25:15;;;;;;;29.95;18.80;;;24.80;61.00;;;;;;5091807;28;20020;-61
2023/09/10 21:27:41;;;;;;;26.70;19.08;;;24.80;61.20;;;;;;5091808;28;20012;-61
2023/09/10 21:30:07;;;;;;;29.50;19.42;;;24.80;61.70;;;;;;5091531;28;20028;-61
2023/09/10 21:32:33;;;;;;;28.95;19.77;;;24.80;61.20;;;;;;5091721;28;20027;-60
2023/09/10 21:34:59;;;;;;;28.98;20.50;;;24.80;61.20;;;;;;5091269;28;20514;-61
2023/09/10 21:37:25;;;;;;;30.50;19.85;;;24.80;61.40;;;;;;5091666;28;20495;-61
2023/09/10 21:39:51;;;;;;;27.55;18.90;;;24.80;61.50;;;;;;5091261;28;20040;-61
2023/09/10 21:42:18;;;;;;;28.00;19.42;;;24.80;61.40;;;;;;5091591;28;20024;-61
2023/09/10 21:44:44;;;;;;;30.60;19.45;;;24.80;61.50;;;;;;5091401;28;20032;-61
2023/09/10 21:47:11;;;;;;;27.20;18.80;;;24.80;61.30;;;;;;5091551;28;20052;-61
2023/09/10 21:49:37;;;;;;;29.35;19.38;;;24.80;61.40;;;;;;5091494;28;20028;-60
2023/09/10 21:52:03;;;;;;;30.33;18.50;;;24.80;61.40;;;;;;5091348;28;20101;-61
2023/09/10 21:54:29;;;;;;;26.48;18.33;;;24.80;62.00;;;;;;5091386;28;20251;-59
2023/09/10 21:56:55;;;;;;;30.33;19.55;;;24.80;61.40;;;;;;5091375;28;20028;-61
2023/09/10 21:59:21;;;;;;;26.77;18.15;;;24.80;61.40;;;;;;5091292;28;20028;-62
2023/09/10 22:01:47;;;;;;;25.73;16.75;;;24.80;61.40;;;;;;5093288;28;20536;-61
2023/09/10 22:04:13;;;;;;;26.38;17.50;;;24.80;61.30;;;;;;5095256;28;20050;-59
2023/09/10 22:06:39;;;;;;;25.50;17.60;;;24.80;61.40;;;;;;5095437;28;20028;-62
2023/09/10 22:09:05;;;;;;;21.80;16.35;;;24.80;61.30;;;;;;5095772;28;20522;-61
2023/09/10 22:11:31;;;;;;;23.10;16.52;;;24.80;61.30;;;;;;5095200;28;20016;-58
2023/09/10 22:13:57;;;;;;;24.75;15.77;;;24.70;61.20;;;;;;5095232;28;20028;-59
2023/09/10 22:16:24;;;;;;;21.00;15.73;;;24.70;61.80;;;;;;5095317;28;20099;-61
2023/09/10 22:18:49;;;;;;;25.02;15.35;;;24.80;61.20;;;;;;5095116;28;20032;-60
2023/09/10 22:21:15;;;;;;;23.75;16.40;;;24.70;61.20;;;;;;5094857;28;20028;-59
2023/09/10 22:23:42;;;;;;;24.10;15.82;;;24.70;61.20;;;;;;5095049;28;20028;-61
2023/09/10 22:26:08;;;;;;;23.95;16.85;;;24.70;61.10;;;;;;5095069;28;20032;-59
2023/09/10 22:28:46;;;;;;;29.25;16.80;;;24.80;61.20;;;;;;5094788;28;20098;-61
2023/09/10 22:31:13;;;;;;;26.65;15.93;;;24.70;61.10;;;;;;5094631;28;20032;-61
2023/09/10 22:33:40;;;;;;;29.98;16.65;;;24.70;61.60;;;;;;5095191;28;20055;-62
2023/09/10 22:36:07;;;;;;;30.00;17.15;;;24.70;62.80;;;;;;5094773;28;20035;-61
2023/09/10 22:38:33;;;;;;;25.40;16.80;;;24.70;61.60;;;;;;5094948;28;20411;-62
2023/09/10 22:41:00;;;;;;;25.60;17.08;;;24.70;62.00;;;;;;5094502;28;20034;-59
2023/09/10 22:43:26;;;;;;;23.80;16.77;;;24.70;61.50;;;;;;5095071;28;20028;-61
2023/09/10 22:45:53;;;;;;;27.15;16.85;;;24.70;61.50;;;;;;5094617;28;20054;-61
2023/09/10 22:48:18;;;;;;;38.90;16.85;;;24.70;61.90;;;;;;5094683;28;20038;-61
2023/09/10 22:50:44;;;;;;;30.13;16.98;;;24.70;62.50;;;;;;5094372;28;20020;-60
2023/09/10 22:53:10;;;;;;;28.48;16.98;;;24.70;63.30;;;;;;5094256;28;20031;-61
2023/09/10 22:55:36;;;;;;;28.73;16.27;;;24.70;63.20;;;;;;5094542;28;20491;-61
2023/09/10 22:58:01;;;;;;;28.42;15.95;;;24.70;62.30;;;;;;5094467;28;20681;-61
2023/09/10 23:00:27;;;;;;;27.52;16.30;;;24.70;62.10;;;;;;5094011;28;20028;-61
2023/09/10 23:02:53;;;;;;;28.00;15.13;;;24.70;62.10;;;;;;5076157;28;20103;-60
2023/09/10 23:05:19;;;;;;;27.10;14.55;;;24.70;62.60;;;;;;5087812;28;20135;-61
2023/09/10 23:07:45;;;;;;;22.10;15.50;;;24.70;63.10;;;;;;5070921;28;20024;-61
2023/09/10 23:10:11;;;;;;;26.85;15.15;;;24.70;62.50;;;;;;5090673;28;20106;-61
2023/09/10 23:12:36;;;;;;;25.65;14.07;;;24.70;62.70;;;;;;5090217;28;20474;-59
2023/09/10 23:15:03;;;;;;;22.67;14.27;;;24.70;62.70;;;;;;5090824;28;20028;-61
2023/09/10 23:17:29;;;;;;;23.20;13.82;;;24.70;62.30;;;;;;5089795;28;20047;-60
2023/09/10 23:19:57;;;;;;;28.15;13.50;;;24.60;62.40;;;;;;5090647;28;20410;-58
2023/09/10 23:22:27;;;;;;;21.30;13.30;;;24.60;62.40;;;;;;5090591;28;20040;-60
2023/09/10 23:24:54;;;;;;;21.10;13.02;;;24.60;62.00;;;;;;5090367;28;20073;-60
2023/09/10 23:27:21;;;;;;;25.02;12.23;;;24.60;62.20;;;;;;5090281;28;20028;-60
2023/09/10 23:29:47;;;;;;;24.27;12.40;;;24.60;62.40;;;;;;5090258;28;20051;-61
2023/09/10 23:32:13;;;;;;;20.30;11.73;;;24.60;62.40;;;;;;5090329;28;20126;-60
2023/09/10 23:34:39;;;;;;;20.85;12.65;;;24.60;61.90;;;;;;5090680;28;20115;-59
2023/09/10 23:37:05;;;;;;;18.42;11.68;;;24.60;61.50;;;;;;5089356;28;20031;-61
2023/09/10 23:39:31;;;;;;;17.15;11.02;;;24.60;61.60;;;;;;5090534;28;20031;-60
2023/09/10 23:41:57;;;;;;;20.60;10.57;;;24.60;61.70;;;;;;5089482;28;20020;-60
2023/09/10 23:44:23;;;;;;;17.90;10.30;;;24.60;61.90;;;;;;5090142;28;20023;-58
2023/09/10 23:46:49;;;;;;;17.75;10.50;;;24.60;61.70;;;;;;5090572;28;20201;-60
2023/09/10 23:49:15;;;;;;;20.25;12.05;;;24.60;61.80;;;;;;5089679;28;20024;-61
2023/09/10 23:51:40;;;;;;;21.95;11.55;;;24.60;61.50;;;;;;5089842;28;20032;-61
2023/09/10 23:54:06;;;;;;;17.30;10.98;;;24.60;62.20;;;;;;5090495;28;20115;-61
2023/09/10 23:56:32;;;;;;;19.25;10.85;;;24.60;62.20;;;;;;5089761;28;20028;-61
2023/09/10 23:58:58;;;;;;;19.75;11.10;;;24.50;62.00;;;;;;5090077;28;20102;-61
